createdAt,value
2022-07-29T00:00:05.892Z,0.00
2022-07-29T00:01:05.851Z,0.00
2022-07-29T00:02:05.795Z,0.00
2022-07-29T00:03:05.789Z,0.00
2022-07-29T00:04:05.834Z,0.00
2022-07-29T00:05:05.660Z,0.00
2022-07-29T00:06:05.613Z,0.00
2022-07-29T00:07:05.583Z,0.00
2022-07-29T00:08:09.352Z,0.00
2022-07-29T00:09:05.476Z,0.00
2022-07-29T00:10:05.535Z,0.00
2022-07-29T00:11:05.384Z,0.00
2022-07-29T00:12:05.339Z,0.00
2022-07-29T00:13:05.293Z,0.00
2022-07-29T00:14:05.245Z,0.00
2022-07-29T00:15:05.223Z,0.00
2022-07-29T00:16:05.427Z,0.00
2022-07-29T00:17:05.108Z,0.00
2022-07-29T00:18:05.167Z,0.00
2022-07-29T00:19:05.020Z,0.00
2022-07-29T00:20:05.000Z,0.00
2022-07-29T00:21:04.927Z,0.00
2022-07-29T00:22:04.876Z,0.00
2022-07-29T00:23:04.834Z,0.00
2022-07-29T00:24:04.784Z,0.00
2022-07-29T00:25:04.742Z,0.00
2022-07-29T00:26:04.693Z,0.00
2022-07-29T00:27:04.652Z,0.00
2022-07-29T00:28:04.603Z,0.00
2022-07-29T00:29:33.000Z,0.00
2022-07-29T00:30:04.515Z,0.00
2022-07-29T00:31:04.519Z,0.00
2022-07-29T00:32:04.623Z,0.00
2022-07-29T00:33:08.921Z,0.00
2022-07-29T00:34:04.325Z,0.00
2022-07-29T00:35:04.285Z,0.00
2022-07-29T00:36:04.234Z,0.00
2022-07-29T00:37:04.192Z,0.00
2022-07-29T00:38:04.155Z,0.00
2022-07-29T00:39:04.103Z,0.00
2022-07-29T00:40:04.054Z,0.00
2022-07-29T00:41:04.006Z,0.00
2022-07-29T00:42:03.962Z,0.00
2022-07-29T00:43:03.914Z,0.00
2022-07-29T00:44:03.870Z,0.00
2022-07-29T00:45:03.838Z,0.00
2022-07-29T00:46:03.773Z,0.00
2022-07-29T00:47:03.800Z,0.00
2022-07-29T00:48:03.688Z,0.00
2022-07-29T00:49:03.721Z,0.00
2022-07-29T00:50:03.591Z,0.00
2022-07-29T00:51:03.548Z,0.00
2022-07-29T00:52:03.498Z,0.00
2022-07-29T00:53:03.454Z,0.00
2022-07-29T00:54:03.408Z,0.00
2022-07-29T00:55:08.333Z,0.00
2022-07-29T00:56:03.315Z,0.00
2022-07-29T00:57:03.270Z,0.00
2022-07-29T00:58:03.237Z,0.00
2022-07-29T00:59:03.178Z,0.00
2022-07-29T01:00:03.136Z,0.00
2022-07-29T01:01:03.186Z,0.00
2022-07-29T01:02:03.186Z,0.00
2022-07-29T01:03:02.998Z,0.00
2022-07-29T01:04:02.950Z,0.00
2022-07-29T01:05:02.925Z,0.00
2022-07-29T01:06:02.854Z,0.00
2022-07-29T01:07:02.810Z,0.00
2022-07-29T01:08:02.763Z,0.00
2022-07-29T01:09:02.718Z,0.00
2022-07-29T01:10:02.671Z,0.00
2022-07-29T01:11:02.627Z,0.00
2022-07-29T01:12:02.580Z,0.00
2022-07-29T01:13:02.533Z,0.00
2022-07-29T01:14:02.494Z,0.00
2022-07-29T01:15:02.442Z,0.00
2022-07-29T01:16:02.426Z,0.00
2022-07-29T01:17:02.349Z,0.00
2022-07-29T01:18:02.302Z,0.00
2022-07-29T01:19:02.258Z,0.00
2022-07-29T01:20:02.211Z,0.00
2022-07-29T01:21:02.166Z,0.00
2022-07-29T01:22:02.118Z,0.00
2022-07-29T01:23:02.076Z,0.00
2022-07-29T01:24:02.028Z,0.00
2022-07-29T01:25:02.033Z,0.00
2022-07-29T01:26:01.935Z,0.00
2022-07-29T01:27:01.893Z,0.00
2022-07-29T01:28:01.844Z,0.00
2022-07-29T01:29:04.035Z,0.00
2022-07-29T01:30:01.748Z,0.00
2022-07-29T01:31:01.727Z,0.00
2022-07-29T01:32:01.723Z,0.00
2022-07-29T01:33:01.616Z,0.00
2022-07-29T01:34:01.568Z,0.00
2022-07-29T01:35:01.520Z,0.00
2022-07-29T01:36:01.472Z,0.00
2022-07-29T01:37:01.429Z,0.00
2022-07-29T01:38:01.381Z,0.00
2022-07-29T01:39:01.336Z,0.00
2022-07-29T01:40:01.289Z,0.00
2022-07-29T01:41:01.246Z,0.00
2022-07-29T01:42:01.207Z,0.00
2022-07-29T01:43:01.157Z,0.00
2022-07-29T01:44:01.111Z,0.00
2022-07-29T01:45:01.060Z,0.00
2022-07-29T01:46:01.013Z,0.00
2022-07-29T01:47:01.033Z,0.00
2022-07-29T01:48:00.921Z,0.00
2022-07-29T01:49:00.943Z,0.00
2022-07-29T01:50:00.827Z,0.00
2022-07-29T01:51:00.809Z,0.00
2022-07-29T01:52:00.735Z,0.00
2022-07-29T01:53:00.691Z,0.00
2022-07-29T01:54:00.644Z,0.00
2022-07-29T01:55:00.600Z,0.00
2022-07-29T01:56:00.637Z,0.00
2022-07-29T01:57:00.509Z,0.00
2022-07-29T01:58:00.459Z,0.00
2022-07-29T01:59:00.415Z,0.00
2022-07-29T02:00:00.368Z,0.00
2022-07-29T02:01:03.062Z,0.00
2022-07-29T02:02:00.375Z,0.00
2022-07-29T02:03:00.231Z,0.00
2022-07-29T02:04:00.182Z,0.00
2022-07-29T02:05:00.241Z,0.00
2022-07-29T02:06:00.095Z,0.00
2022-07-29T02:07:00.061Z,0.00
2022-07-29T02:08:00.002Z,0.00
2022-07-29T02:08:59.954Z,0.00
2022-07-29T02:09:59.907Z,0.00
2022-07-29T02:10:59.864Z,0.00
2022-07-29T02:11:59.816Z,0.00
2022-07-29T02:12:59.835Z,0.00
2022-07-29T02:13:59.723Z,0.00
2022-07-29T02:14:59.746Z,0.00
2022-07-29T02:15:59.677Z,0.00
2022-07-29T02:16:59.591Z,0.00
2022-07-29T02:17:59.541Z,0.00
2022-07-29T02:18:59.493Z,0.00
2022-07-29T02:19:59.444Z,0.00
2022-07-29T02:20:59.401Z,0.00
2022-07-29T02:21:59.352Z,0.00
2022-07-29T02:22:59.307Z,0.00
2022-07-29T02:23:59.262Z,0.00
2022-07-29T02:24:59.217Z,0.00
2022-07-29T02:25:59.168Z,0.00
2022-07-29T02:26:59.126Z,0.00
2022-07-29T02:27:59.075Z,0.00
2022-07-29T02:28:59.030Z,0.00
2022-07-29T02:29:58.990Z,0.00
2022-07-29T02:30:58.990Z,0.00
2022-07-29T02:31:58.890Z,0.00
2022-07-29T02:32:58.849Z,0.00
2022-07-29T02:33:58.800Z,0.00
2022-07-29T02:34:58.861Z,0.00
2022-07-29T02:35:58.706Z,0.00
2022-07-29T02:36:58.674Z,0.00
2022-07-29T02:37:58.614Z,0.00
2022-07-29T02:38:58.574Z,0.00
2022-07-29T02:39:58.523Z,0.00
2022-07-29T02:40:58.477Z,0.00
2022-07-29T02:41:58.428Z,0.00
2022-07-29T02:42:58.385Z,0.00
2022-07-29T02:43:58.335Z,0.00
2022-07-29T02:44:58.291Z,0.00
2022-07-29T02:45:58.285Z,0.00
2022-07-29T02:46:58.275Z,0.00
2022-07-29T02:47:58.151Z,0.00
2022-07-29T02:48:58.166Z,0.00
2022-07-29T02:49:58.061Z,0.00
2022-07-29T02:50:58.019Z,0.00
2022-07-29T02:51:58.062Z,0.00
2022-07-29T02:52:57.923Z,0.00
2022-07-29T02:53:57.876Z,0.00
2022-07-29T02:54:57.832Z,0.00
2022-07-29T02:55:57.913Z,0.00
2022-07-29T02:56:57.738Z,0.00
2022-07-29T02:57:57.689Z,0.00
2022-07-29T02:58:57.648Z,0.00
2022-07-29T02:59:57.598Z,0.00
2022-07-29T03:00:57.553Z,0.00
2022-07-29T03:01:57.665Z,0.00
2022-07-29T03:02:57.461Z,0.00
2022-07-29T03:03:57.414Z,0.00
2022-07-29T03:04:57.402Z,0.00
2022-07-29T03:05:57.320Z,0.00
2022-07-29T03:06:57.275Z,0.00
2022-07-29T03:07:57.228Z,0.00
2022-07-29T03:08:57.184Z,0.00
2022-07-29T03:09:57.167Z,0.00
2022-07-29T03:10:57.093Z,0.00
2022-07-29T03:11:57.043Z,0.00
2022-07-29T03:12:57.001Z,0.00
2022-07-29T03:13:56.953Z,0.00
2022-07-29T03:14:56.907Z,0.00
2022-07-29T03:15:56.920Z,0.00
2022-07-29T03:16:56.810Z,0.00
2022-07-29T03:17:56.780Z,0.00
2022-07-29T03:18:56.717Z,0.00
2022-07-29T03:19:56.674Z,0.00
2022-07-29T03:20:56.630Z,0.00
2022-07-29T03:21:56.580Z,0.00
2022-07-29T03:22:56.532Z,0.00
2022-07-29T03:23:56.489Z,0.00
2022-07-29T03:24:56.441Z,0.00
2022-07-29T03:25:56.395Z,0.00
2022-07-29T03:26:56.352Z,0.00
2022-07-29T03:27:56.302Z,0.00
2022-07-29T03:28:56.256Z,0.00
2022-07-29T03:29:57.094Z,0.00
2022-07-29T03:30:56.201Z,0.00
2022-07-29T03:31:56.120Z,0.00
2022-07-29T03:32:58.122Z,0.00
2022-07-29T03:33:56.032Z,0.00
2022-07-29T03:34:55.976Z,0.00
2022-07-29T03:35:55.932Z,0.00
2022-07-29T03:36:55.890Z,0.00
2022-07-29T03:37:55.841Z,0.00
2022-07-29T03:38:55.800Z,0.00
2022-07-29T03:39:55.754Z,0.00
2022-07-29T03:40:55.703Z,0.00
2022-07-29T03:41:55.654Z,0.00
2022-07-29T03:42:55.626Z,0.00
2022-07-29T03:43:55.562Z,0.00
2022-07-29T03:44:55.515Z,0.00
2022-07-29T03:45:55.527Z,0.00
2022-07-29T03:46:55.427Z,0.00
2022-07-29T03:48:00.355Z,0.00
2022-07-29T03:48:55.368Z,0.00
2022-07-29T03:49:55.283Z,0.00
2022-07-29T03:50:55.294Z,0.00
2022-07-29T03:51:55.193Z,0.00
2022-07-29T03:52:55.146Z,0.00
2022-07-29T03:53:55.100Z,0.00
2022-07-29T03:54:55.057Z,0.00
2022-07-29T03:55:55.006Z,0.00
2022-07-29T03:56:54.964Z,0.00
2022-07-29T03:57:54.935Z,0.00
2022-07-29T03:58:54.871Z,4.00
2022-07-29T03:59:54.821Z,4.00
2022-07-29T04:00:54.774Z,4.00
2022-07-29T04:01:54.807Z,4.00
2022-07-29T04:02:54.679Z,4.00
2022-07-29T04:03:54.692Z,4.00
2022-07-29T04:04:54.587Z,4.00
2022-07-29T04:05:54.545Z,4.00
2022-07-29T04:06:54.493Z,4.00
2022-07-29T04:07:54.451Z,4.00
2022-07-29T04:09:05.353Z,4.00
2022-07-29T04:09:54.354Z,0.00
2022-07-29T04:10:54.307Z,0.00
2022-07-29T04:12:02.475Z,0.00
2022-07-29T04:12:54.216Z,4.00
2022-07-29T04:13:54.170Z,4.00
2022-07-29T04:14:54.127Z,4.00
2022-07-29T04:15:54.127Z,4.00
2022-07-29T04:16:54.052Z,4.00
2022-07-29T04:17:53.985Z,4.00
2022-07-29T04:18:53.937Z,4.00
2022-07-29T04:19:53.894Z,4.00
2022-07-29T04:20:53.856Z,4.00
2022-07-29T04:21:53.872Z,4.00
2022-07-29T04:22:53.750Z,4.00
2022-07-29T04:23:54.049Z,8.00
2022-07-29T04:24:53.659Z,4.00
2022-07-29T04:25:53.612Z,4.00
2022-07-29T04:26:53.565Z,4.00
2022-07-29T04:27:53.520Z,4.00
2022-07-29T04:28:53.477Z,8.00
2022-07-29T04:29:56.013Z,8.00
2022-07-29T04:30:53.432Z,8.00
2022-07-29T04:31:53.336Z,4.00
2022-07-29T04:32:53.289Z,8.00
2022-07-29T04:33:53.241Z,8.00
2022-07-29T04:34:53.193Z,8.00
2022-07-29T04:35:55.053Z,8.00
2022-07-29T04:36:53.101Z,4.00
2022-07-29T04:37:53.056Z,8.00
2022-07-29T04:38:53.006Z,8.00
2022-07-29T04:39:52.962Z,8.00
2022-07-29T04:40:52.913Z,8.00
2022-07-29T04:41:56.359Z,8.00
2022-07-29T04:42:52.824Z,8.00
2022-07-29T04:43:52.780Z,12.00
2022-07-29T04:44:52.802Z,8.00
2022-07-29T04:45:52.745Z,12.00
2022-07-29T04:46:52.637Z,8.00
2022-07-29T04:47:52.590Z,12.00
2022-07-29T04:48:52.605Z,12.00
2022-07-29T04:49:52.501Z,12.00
2022-07-29T04:50:52.450Z,12.00
2022-07-29T04:51:52.408Z,12.00
2022-07-29T04:52:52.358Z,16.00
2022-07-29T04:53:52.311Z,16.00
2022-07-29T04:54:52.263Z,20.00
2022-07-29T04:55:52.226Z,20.00
2022-07-29T04:56:52.177Z,20.00
2022-07-29T04:57:52.134Z,20.00
2022-07-29T04:58:52.077Z,16.00
2022-07-29T04:59:52.033Z,20.00
2022-07-29T05:00:51.987Z,24.00
2022-07-29T05:01:52.104Z,32.00
2022-07-29T05:02:51.988Z,36.00
2022-07-29T05:03:53.937Z,40.00
2022-07-29T05:04:51.798Z,36.00
2022-07-29T05:05:51.752Z,40.00
2022-07-29T05:06:51.705Z,40.00
2022-07-29T05:07:51.659Z,44.00
2022-07-29T05:08:51.615Z,44.00
2022-07-29T05:09:51.567Z,44.00
2022-07-29T05:10:51.522Z,44.00
2022-07-29T05:11:51.474Z,40.00
2022-07-29T05:12:51.429Z,40.00
2022-07-29T05:13:51.380Z,40.00
2022-07-29T05:14:51.333Z,36.00
2022-07-29T05:15:51.348Z,44.00
2022-07-29T05:16:51.243Z,36.00
2022-07-29T05:17:51.197Z,28.00
2022-07-29T05:18:51.148Z,24.00
2022-07-29T05:19:51.201Z,28.00
2022-07-29T05:20:51.053Z,24.00
2022-07-29T05:21:51.008Z,28.00
2022-07-29T05:22:50.961Z,44.00
2022-07-29T05:23:50.918Z,32.00
2022-07-29T05:24:50.867Z,36.00
2022-07-29T05:25:50.821Z,40.00
2022-07-29T05:26:50.775Z,44.00
2022-07-29T05:27:51.037Z,48.00
2022-07-29T05:28:50.681Z,48.00
2022-07-29T05:29:50.635Z,48.00
2022-07-29T05:30:50.601Z,44.00
2022-07-29T05:31:50.543Z,44.00
2022-07-29T05:32:50.493Z,44.00
2022-07-29T05:33:50.452Z,40.00
2022-07-29T05:34:51.808Z,28.00
2022-07-29T05:35:50.358Z,28.00
2022-07-29T05:36:50.308Z,24.00
2022-07-29T05:37:50.261Z,24.00
2022-07-29T05:38:50.213Z,32.00
2022-07-29T05:39:56.381Z,24.00
2022-07-29T05:40:50.122Z,24.00
2022-07-29T05:41:52.023Z,24.00
2022-07-29T05:42:50.028Z,28.00
2022-07-29T05:43:49.983Z,24.00
2022-07-29T05:44:49.935Z,28.00
2022-07-29T05:45:50.465Z,24.00
2022-07-29T05:46:49.874Z,28.00
2022-07-29T05:47:49.796Z,28.00
2022-07-29T05:48:49.795Z,28.00
2022-07-29T05:49:49.705Z,28.00
2022-07-29T05:50:49.655Z,28.00
2022-07-29T05:51:49.609Z,28.00
2022-07-29T05:52:49.562Z,32.00
2022-07-29T05:53:49.516Z,32.00
2022-07-29T05:54:49.468Z,40.00
2022-07-29T05:55:49.424Z,32.00
2022-07-29T05:56:49.374Z,32.00
2022-07-29T05:57:49.331Z,32.00
2022-07-29T05:58:49.282Z,32.00
2022-07-29T05:59:49.238Z,44.00
2022-07-29T06:00:49.197Z,48.00
2022-07-29T06:01:49.264Z,48.00
2022-07-29T06:02:49.097Z,48.00
2022-07-29T06:03:49.049Z,40.00
2022-07-29T06:04:49.074Z,40.00
2022-07-29T06:05:48.962Z,40.00
2022-07-29T06:06:48.910Z,40.00
2022-07-29T06:07:50.098Z,36.00
2022-07-29T06:08:48.818Z,48.00
2022-07-29T06:09:48.771Z,40.00
2022-07-29T06:10:48.722Z,32.00
2022-07-29T06:11:48.676Z,36.00
2022-07-29T06:12:48.632Z,48.00
2022-07-29T06:13:48.582Z,52.00
2022-07-29T06:14:53.645Z,56.00
2022-07-29T06:15:48.533Z,52.00
2022-07-29T06:16:48.519Z,52.00
2022-07-29T06:17:59.314Z,52.00
2022-07-29T06:18:48.349Z,56.00
2022-07-29T06:19:48.303Z,56.00
2022-07-29T06:20:48.255Z,56.00
2022-07-29T06:21:48.210Z,56.00
2022-07-29T06:22:48.162Z,56.00
2022-07-29T06:23:48.116Z,60.00
2022-07-29T06:24:48.070Z,44.00
2022-07-29T06:25:48.024Z,56.00
2022-07-29T06:26:47.978Z,56.00
2022-07-29T06:27:47.931Z,56.00
2022-07-29T06:28:47.882Z,60.00
2022-07-29T06:29:47.841Z,60.00
2022-07-29T06:30:47.808Z,56.00
2022-07-29T06:31:47.744Z,56.00
2022-07-29T06:32:47.696Z,56.00
2022-07-29T06:33:47.650Z,56.00
2022-07-29T06:34:48.947Z,52.00
2022-07-29T06:35:53.648Z,60.00
2022-07-29T06:36:47.522Z,52.00
2022-07-29T06:37:47.465Z,48.00
2022-07-29T06:38:51.229Z,36.00
2022-07-29T06:39:47.370Z,40.00
2022-07-29T06:40:47.332Z,48.00
2022-07-29T06:41:47.277Z,56.00
2022-07-29T06:42:47.229Z,68.00
2022-07-29T06:43:51.865Z,52.00
2022-07-29T06:44:47.135Z,56.00
2022-07-29T06:45:47.129Z,48.00
2022-07-29T06:46:47.040Z,48.00
2022-07-29T06:47:47.000Z,52.00
2022-07-29T06:48:46.996Z,52.00
2022-07-29T06:49:46.905Z,52.00
2022-07-29T06:50:46.855Z,52.00
2022-07-29T06:51:46.810Z,56.00
2022-07-29T06:52:46.761Z,60.00
2022-07-29T06:54:00.582Z,56.00
2022-07-29T06:54:46.670Z,52.00
2022-07-29T06:55:46.736Z,52.00
2022-07-29T06:56:46.576Z,56.00
2022-07-29T06:57:46.529Z,76.00
2022-07-29T06:58:46.482Z,72.00
2022-07-29T06:59:46.437Z,72.00
2022-07-29T07:00:46.503Z,76.00
2022-07-29T07:01:46.473Z,64.00
2022-07-29T07:02:46.360Z,88.00
2022-07-29T07:03:46.249Z,84.00
2022-07-29T07:04:46.202Z,76.00
2022-07-29T07:05:46.155Z,76.00
2022-07-29T07:06:46.109Z,80.00
2022-07-29T07:07:46.068Z,80.00
2022-07-29T07:08:46.017Z,76.00
2022-07-29T07:09:45.968Z,64.00
2022-07-29T07:10:45.921Z,48.00
2022-07-29T07:11:45.876Z,56.00
2022-07-29T07:12:45.830Z,56.00
2022-07-29T07:13:45.781Z,52.00
2022-07-29T07:14:45.733Z,60.00
2022-07-29T07:15:45.695Z,76.00
2022-07-29T07:16:45.701Z,72.00
2022-07-29T07:17:45.603Z,60.00
2022-07-29T07:18:45.547Z,80.00
2022-07-29T07:19:45.506Z,76.00
2022-07-29T07:20:45.456Z,76.00
2022-07-29T07:21:45.408Z,76.00
2022-07-29T07:22:45.362Z,88.00
2022-07-29T07:23:45.319Z,84.00
2022-07-29T07:24:45.268Z,76.00
2022-07-29T07:25:45.223Z,92.00
2022-07-29T07:26:45.175Z,92.00
2022-07-29T07:27:45.130Z,96.00
2022-07-29T07:28:45.081Z,96.00
2022-07-29T07:29:45.036Z,96.00
2022-07-29T07:30:44.990Z,96.00
2022-07-29T07:31:45.006Z,96.00
2022-07-29T07:32:44.896Z,84.00
2022-07-29T07:33:44.850Z,84.00
2022-07-29T07:34:44.805Z,80.00
2022-07-29T07:35:44.754Z,76.00
2022-07-29T07:36:44.711Z,92.00
2022-07-29T07:37:44.662Z,72.00
2022-07-29T07:38:44.636Z,72.00
2022-07-29T07:39:44.568Z,88.00
2022-07-29T07:40:44.522Z,84.00
2022-07-29T07:41:44.475Z,72.00
2022-07-29T07:42:44.428Z,64.00
2022-07-29T07:43:44.387Z,76.00
2022-07-29T07:45:11.070Z,80.00
2022-07-29T07:45:44.328Z,92.00
2022-07-29T07:46:44.243Z,92.00
2022-07-29T07:47:44.199Z,108.00
2022-07-29T07:48:44.213Z,112.00
2022-07-29T07:49:44.102Z,100.00
2022-07-29T07:50:44.056Z,96.00
2022-07-29T07:51:44.008Z,92.00
2022-07-29T07:52:43.964Z,92.00
2022-07-29T07:53:43.916Z,92.00
2022-07-29T07:54:43.871Z,88.00
2022-07-29T07:56:13.189Z,68.00
2022-07-29T07:56:43.782Z,72.00
2022-07-29T07:57:43.727Z,76.00
2022-07-29T07:58:43.682Z,76.00
2022-07-29T07:59:43.635Z,104.00
2022-07-29T08:00:43.663Z,76.00
2022-07-29T08:01:47.596Z,92.00
2022-07-29T08:02:43.552Z,72.00
2022-07-29T08:03:43.452Z,80.00
2022-07-29T08:04:43.407Z,84.00
2022-07-29T08:05:43.354Z,60.00
2022-07-29T08:06:43.310Z,64.00
2022-07-29T08:07:43.265Z,68.00
2022-07-29T08:08:43.219Z,80.00
2022-07-29T08:09:43.170Z,76.00
2022-07-29T08:10:43.141Z,76.00
2022-07-29T08:11:51.533Z,96.00
2022-07-29T08:12:43.032Z,92.00
2022-07-29T08:13:42.984Z,108.00
2022-07-29T08:14:42.942Z,80.00
2022-07-29T08:15:42.888Z,96.00
2022-07-29T08:16:42.901Z,88.00
2022-07-29T08:17:42.795Z,84.00
2022-07-29T08:18:42.775Z,96.00
2022-07-29T08:19:42.703Z,84.00
2022-07-29T08:20:42.658Z,80.00
2022-07-29T08:21:42.609Z,84.00
2022-07-29T08:22:42.634Z,84.00
2022-07-29T08:23:46.171Z,84.00
2022-07-29T08:24:42.471Z,88.00
2022-07-29T08:25:42.506Z,96.00
2022-07-29T08:26:42.380Z,84.00
2022-07-29T08:27:44.143Z,84.00
2022-07-29T08:28:42.285Z,104.00
2022-07-29T08:29:42.236Z,88.00
2022-07-29T08:30:42.192Z,88.00
2022-07-29T08:31:42.197Z,92.00
2022-07-29T08:32:57.326Z,128.00
2022-07-29T08:33:42.050Z,128.00
2022-07-29T08:34:42.006Z,132.00
2022-07-29T08:35:41.979Z,128.00
2022-07-29T08:36:41.912Z,128.00
2022-07-29T08:37:41.891Z,124.00
2022-07-29T08:38:41.822Z,112.00
2022-07-29T08:39:41.772Z,104.00
2022-07-29T08:40:41.727Z,84.00
2022-07-29T08:41:44.655Z,84.00
2022-07-29T08:42:41.633Z,88.00
2022-07-29T08:43:41.583Z,100.00
2022-07-29T08:44:41.540Z,92.00
2022-07-29T08:45:41.539Z,92.00
2022-07-29T08:46:41.448Z,112.00
2022-07-29T08:47:41.398Z,112.00
2022-07-29T08:48:41.456Z,112.00
2022-07-29T08:49:41.304Z,112.00
2022-07-29T08:50:41.259Z,112.00
2022-07-29T08:51:49.469Z,112.00
2022-07-29T08:52:41.169Z,100.00
2022-07-29T08:53:41.117Z,104.00
2022-07-29T08:54:41.072Z,108.00
2022-07-29T08:55:41.026Z,96.00
2022-07-29T08:56:40.981Z,100.00
2022-07-29T08:57:48.764Z,92.00
2022-07-29T08:58:40.894Z,84.00
2022-07-29T08:59:40.869Z,88.00
2022-07-29T09:00:40.871Z,76.00
2022-07-29T09:01:42.778Z,76.00
2022-07-29T09:02:40.701Z,84.00
2022-07-29T09:03:40.713Z,84.00
2022-07-29T09:04:40.610Z,84.00
2022-07-29T09:05:43.785Z,88.00
2022-07-29T09:06:40.516Z,92.00
2022-07-29T09:07:40.467Z,96.00
2022-07-29T09:08:40.422Z,92.00
2022-07-29T09:09:40.373Z,96.00
2022-07-29T09:10:40.327Z,96.00
2022-07-29T09:11:40.285Z,92.00
2022-07-29T09:12:40.237Z,100.00
2022-07-29T09:13:40.185Z,100.00
2022-07-29T09:14:40.143Z,104.00
2022-07-29T09:15:40.094Z,104.00
2022-07-29T09:16:52.792Z,112.00
2022-07-29T09:17:40.048Z,108.00
2022-07-29T09:18:39.959Z,100.00
2022-07-29T09:19:45.407Z,100.00
2022-07-29T09:20:39.862Z,92.00
2022-07-29T09:21:39.817Z,92.00
2022-07-29T09:22:42.074Z,96.00
2022-07-29T09:23:39.722Z,96.00
2022-07-29T09:24:39.684Z,96.00
2022-07-29T09:25:39.627Z,92.00
2022-07-29T09:26:39.583Z,92.00
2022-07-29T09:27:39.537Z,96.00
2022-07-29T09:28:39.490Z,104.00
2022-07-29T09:29:39.445Z,104.00
2022-07-29T09:30:39.402Z,100.00
2022-07-29T09:31:39.442Z,92.00
2022-07-29T09:32:39.304Z,116.00
2022-07-29T09:33:39.255Z,116.00
2022-07-29T09:34:39.214Z,112.00
2022-07-29T09:35:39.163Z,120.00
2022-07-29T09:36:39.119Z,128.00
2022-07-29T09:37:39.069Z,136.00
2022-07-29T09:38:39.025Z,124.00
2022-07-29T09:39:38.977Z,96.00
2022-07-29T09:40:38.932Z,96.00
2022-07-29T09:41:38.883Z,96.00
2022-07-29T09:42:38.837Z,112.00
2022-07-29T09:43:38.789Z,112.00
2022-07-29T09:44:38.750Z,116.00
2022-07-29T09:45:38.698Z,120.00
2022-07-29T09:46:38.741Z,120.00
2022-07-29T09:47:38.603Z,112.00
2022-07-29T09:48:38.619Z,128.00
2022-07-29T09:49:38.510Z,120.00
2022-07-29T09:50:38.465Z,120.00
2022-07-29T09:51:38.937Z,116.00
2022-07-29T09:52:38.375Z,112.00
2022-07-29T09:53:38.336Z,120.00
2022-07-29T09:54:38.284Z,128.00
2022-07-29T09:55:38.311Z,128.00
2022-07-29T09:56:38.189Z,152.00
2022-07-29T09:57:38.141Z,152.00
2022-07-29T09:58:38.093Z,160.00
2022-07-29T09:59:50.092Z,152.00
2022-07-29T10:00:38.049Z,144.00
2022-07-29T10:01:37.952Z,144.00
2022-07-29T10:02:37.909Z,140.00
2022-07-29T10:03:37.909Z,116.00
2022-07-29T10:04:37.815Z,148.00
2022-07-29T10:05:37.767Z,140.00
2022-07-29T10:06:37.721Z,152.00
2022-07-29T10:07:37.673Z,144.00
2022-07-29T10:08:37.630Z,140.00
2022-07-29T10:09:37.583Z,144.00
2022-07-29T10:10:37.538Z,140.00
2022-07-29T10:11:49.185Z,148.00
2022-07-29T10:12:37.443Z,120.00
2022-07-29T10:13:37.394Z,112.00
2022-07-29T10:14:37.350Z,132.00
2022-07-29T10:15:37.303Z,136.00
2022-07-29T10:16:37.353Z,152.00
2022-07-29T10:17:37.209Z,156.00
2022-07-29T10:18:37.162Z,168.00
2022-07-29T10:19:37.118Z,164.00
2022-07-29T10:20:37.071Z,144.00
2022-07-29T10:21:37.029Z,128.00
2022-07-29T10:22:52.322Z,132.00
2022-07-29T10:23:46.844Z,156.00
2022-07-29T10:24:36.888Z,168.00
2022-07-29T10:25:36.839Z,176.00
2022-07-29T10:26:36.795Z,184.00
2022-07-29T10:27:36.745Z,184.00
2022-07-29T10:28:36.710Z,172.00
2022-07-29T10:29:36.654Z,156.00
2022-07-29T10:30:36.610Z,140.00
2022-07-29T10:31:36.626Z,132.00
2022-07-29T10:32:36.515Z,132.00
2022-07-29T10:33:36.465Z,132.00
2022-07-29T10:34:36.422Z,128.00
2022-07-29T10:35:36.376Z,120.00
2022-07-29T10:36:36.328Z,116.00
2022-07-29T10:37:36.312Z,96.00
2022-07-29T10:38:38.482Z,92.00
2022-07-29T10:39:44.466Z,96.00
2022-07-29T10:40:36.143Z,96.00
2022-07-29T10:41:43.832Z,108.00
2022-07-29T10:42:36.049Z,120.00
2022-07-29T10:43:36.016Z,128.00
2022-07-29T10:44:35.956Z,132.00
2022-07-29T10:45:35.914Z,124.00
2022-07-29T10:46:35.904Z,108.00
2022-07-29T10:47:35.817Z,96.00
2022-07-29T10:48:35.771Z,88.00
2022-07-29T10:49:35.754Z,84.00
2022-07-29T10:50:35.678Z,76.00
2022-07-29T10:51:35.631Z,76.00
2022-07-29T10:52:38.100Z,76.00
2022-07-29T10:53:35.537Z,72.00
2022-07-29T10:54:35.492Z,76.00
2022-07-29T10:55:35.741Z,68.00
2022-07-29T10:56:35.400Z,60.00
2022-07-29T10:57:53.839Z,56.00
2022-07-29T10:58:35.306Z,48.00
2022-07-29T10:59:36.548Z,48.00
2022-07-29T11:00:35.216Z,48.00
2022-07-29T11:01:37.003Z,44.00
2022-07-29T11:02:41.009Z,40.00
2022-07-29T11:03:35.119Z,40.00
2022-07-29T11:04:35.029Z,36.00
2022-07-29T11:05:40.752Z,36.00
2022-07-29T11:06:34.935Z,36.00
2022-07-29T11:07:46.168Z,36.00
2022-07-29T11:08:39.713Z,32.00
2022-07-29T11:09:38.562Z,32.00
2022-07-29T11:10:34.749Z,32.00
2022-07-29T11:11:34.893Z,28.00
2022-07-29T11:12:34.660Z,24.00
2022-07-29T11:13:37.272Z,28.00
2022-07-29T11:14:34.564Z,28.00
2022-07-29T11:15:34.516Z,24.00
2022-07-29T11:16:34.475Z,24.00
2022-07-29T11:17:37.370Z,20.00
2022-07-29T11:18:34.378Z,20.00
2022-07-29T11:19:34.336Z,20.00
2022-07-29T11:20:34.290Z,16.00
2022-07-29T11:21:53.496Z,16.00
2022-07-29T11:22:34.199Z,20.00
2022-07-29T11:23:34.704Z,16.00
2022-07-29T11:24:35.090Z,16.00
2022-07-29T11:25:43.024Z,16.00
2022-07-29T11:26:34.009Z,16.00
2022-07-29T11:27:33.960Z,12.00
2022-07-29T11:28:33.916Z,12.00
2022-07-29T11:29:33.870Z,12.00
2022-07-29T11:30:33.823Z,12.00
2022-07-29T11:31:33.774Z,12.00
2022-07-29T11:32:33.731Z,8.00
2022-07-29T11:34:34.803Z,12.00
2022-07-29T11:36:33.545Z,8.00
2022-07-29T11:37:33.501Z,8.00
2022-07-29T11:38:33.452Z,8.00
2022-07-29T11:39:36.643Z,8.00
2022-07-29T11:40:33.360Z,8.00
2022-07-29T11:41:33.314Z,8.00
2022-07-29T11:42:34.555Z,8.00
2022-07-29T11:43:33.219Z,8.00
2022-07-29T11:44:33.175Z,8.00
2022-07-29T11:45:41.902Z,8.00
2022-07-29T11:46:33.083Z,8.00
2022-07-29T11:47:36.982Z,8.00
2022-07-29T11:48:32.988Z,8.00
2022-07-29T11:49:33.365Z,8.00
2022-07-29T11:50:32.900Z,8.00
2022-07-29T11:51:33.301Z,8.00
2022-07-29T11:52:32.810Z,8.00
2022-07-29T11:53:33.401Z,12.00
2022-07-29T11:54:32.720Z,8.00
2022-07-29T11:55:33.930Z,12.00
2022-07-29T11:56:32.619Z,12.00
2022-07-29T11:57:37.221Z,12.00
2022-07-29T11:58:32.536Z,12.00
2022-07-29T11:59:33.148Z,16.00
2022-07-29T12:00:32.431Z,20.00
2022-07-29T12:01:32.389Z,24.00
2022-07-29T12:02:36.947Z,24.00
2022-07-29T12:03:34.977Z,28.00
2022-07-29T12:04:32.252Z,36.00
2022-07-29T12:05:36.919Z,36.00
2022-07-29T12:06:32.151Z,36.00
2022-07-29T12:07:33.698Z,40.00
2022-07-29T12:08:32.067Z,40.00
2022-07-29T12:09:40.153Z,40.00
2022-07-29T12:10:31.970Z,40.00
2022-07-29T12:11:31.922Z,40.00
2022-07-29T12:12:31.875Z,36.00
2022-07-29T12:13:37.391Z,40.00
2022-07-29T12:14:31.785Z,36.00
2022-07-29T12:15:46.944Z,36.00
2022-07-29T12:16:31.715Z,40.00
2022-07-29T12:17:31.650Z,40.00
2022-07-29T12:18:31.597Z,36.00
2022-07-29T12:19:31.552Z,40.00
2022-07-29T12:20:31.506Z,40.00
2022-07-29T12:21:31.459Z,44.00
2022-07-29T12:22:31.411Z,44.00
2022-07-29T12:23:34.986Z,48.00
2022-07-29T12:24:31.322Z,52.00
2022-07-29T12:25:32.398Z,60.00
2022-07-29T12:26:31.229Z,60.00
2022-07-29T12:27:31.334Z,60.00
2022-07-29T12:28:31.137Z,60.00
2022-07-29T12:29:35.329Z,52.00
2022-07-29T12:30:31.043Z,52.00
2022-07-29T12:31:42.348Z,48.00
2022-07-29T12:32:30.995Z,44.00
2022-07-29T12:33:30.903Z,44.00
2022-07-29T12:34:30.857Z,40.00
2022-07-29T12:35:30.813Z,40.00
2022-07-29T12:36:30.766Z,44.00
2022-07-29T12:37:38.988Z,44.00
2022-07-29T12:38:30.671Z,44.00
2022-07-29T12:39:30.628Z,44.00
2022-07-29T12:40:30.582Z,44.00
2022-07-29T12:41:30.534Z,52.00
2022-07-29T12:42:30.485Z,60.00
2022-07-29T12:43:30.441Z,88.00
2022-07-29T12:44:30.397Z,124.00
2022-07-29T12:45:30.348Z,120.00
2022-07-29T12:46:30.342Z,128.00
2022-07-29T12:47:30.257Z,132.00
2022-07-29T12:48:30.211Z,124.00
2022-07-29T12:49:30.163Z,116.00
2022-07-29T12:50:30.121Z,96.00
2022-07-29T12:51:30.083Z,116.00
2022-07-29T12:52:30.022Z,112.00
2022-07-29T12:53:29.977Z,148.00
2022-07-29T12:54:29.929Z,144.00
2022-07-29T12:55:29.885Z,148.00
2022-07-29T12:56:42.390Z,148.00
2022-07-29T12:57:29.793Z,144.00
2022-07-29T12:58:29.745Z,136.00
2022-07-29T12:59:29.701Z,152.00